NKW weather

Diego Garcia Naval Support Facility
Diego Garcia, British Indian Ocean Territory

Public forecast

Using degrees Celsius for public forecast. Weather courtesy of forecast.io.

METAR (pilot weather report)

Retrieved 2019/05/22 17:55 UTC (35 minutes ago):

FJDG 221755Z 12008KT 9999 FEW018 FEW022 BKN270 28/25 A2989 RMK SLP119 8/806 T02810251 10290 20281 403230273 51010

TAF (pilot weather forecast)

Retrieved 2019/05/22 17:06 UTC (1 hour ago):

TAF TAF FJDG 221700Z 2217/2323 12012KT 9999 SCT020 BKN035 QNH2985INS TEMPO 2218/2301 8000 -SHRA BKN015 TX31/2305Z TN24/2219Z